sensor_id;sensor_type;location;lat;lon;timestamp;pressure;altitude;pressure_sealevel;temperature;humidity
73516;BME280;61763;51.416;5.442;2023-03-14T00:01:14;98895.31;;;10.97;100.00
73516;BME280;61763;51.416;5.442;2023-03-14T00:03:39;98900.09;;;10.93;100.00
73516;BME280;61763;51.416;5.442;2023-03-14T00:06:06;98897.53;;;10.92;100.00
73516;BME280;61763;51.416;5.442;2023-03-14T00:08:31;98895.81;;;10.91;100.00
73516;BME280;61763;51.416;5.442;2023-03-14T00:10:57;98890.41;;;10.91;100.00
73516;BME280;61763;51.416;5.442;2023-03-14T00:13:25;98904.16;;;10.87;100.00
73516;BME280;61763;51.416;5.442;2023-03-14T00:15:50;98895.84;;;10.79;100.00
73516;BME280;61763;51.416;5.442;2023-03-14T00:18:15;98900.50;;;10.77;100.00
73516;BME280;61763;51.416;5.442;2023-03-14T00:20:41;98907.50;;;10.80;100.00
73516;BME280;61763;51.416;5.442;2023-03-14T00:23:06;98910.06;;;10.81;99.51
73516;BME280;61763;51.416;5.442;2023-03-14T00:25:32;98913.16;;;10.77;99.67
73516;BME280;61763;51.416;5.442;2023-03-14T00:27:59;98916.72;;;10.66;99.26
73516;BME280;61763;51.416;5.442;2023-03-14T00:30:25;98920.03;;;10.58;99.10
73516;BME280;61763;51.416;5.442;2023-03-14T00:32:50;98926.91;;;10.51;99.53
73516;BME280;61763;51.416;5.442;2023-03-14T00:35:17;98928.50;;;10.42;98.38
73516;BME280;61763;51.416;5.442;2023-03-14T00:37:43;98922.38;;;10.40;96.93
73516;BME280;61763;51.416;5.442;2023-03-14T00:40:09;98934.25;;;10.38;95.72
73516;BME280;61763;51.416;5.442;2023-03-14T00:42:35;98925.03;;;10.29;96.06
73516;BME280;61763;51.416;5.442;2023-03-14T00:45:00;98928.63;;;10.41;94.82
73516;BME280;61763;51.416;5.442;2023-03-14T00:47:26;98934.38;;;10.36;95.65
73516;BME280;61763;51.416;5.442;2023-03-14T00:49:51;98933.41;;;10.37;95.19
73516;BME280;61763;51.416;5.442;2023-03-14T00:52:17;98930.84;;;10.36;95.96
73516;BME280;61763;51.416;5.442;2023-03-14T00:54:43;98942.69;;;10.33;96.00
73516;BME280;61763;51.416;5.442;2023-03-14T00:57:08;98935.56;;;10.32;96.13
73516;BME280;61763;51.416;5.442;2023-03-14T00:59:35;98927.84;;;10.27;96.08
73516;BME280;61763;51.416;5.442;2023-03-14T01:02:00;98928.00;;;10.14;97.40
73516;BME280;61763;51.416;5.442;2023-03-14T01:04:25;98938.28;;;10.09;98.19
73516;BME280;61763;51.416;5.442;2023-03-14T01:06:52;98939.13;;;10.10;97.63
73516;BME280;61763;51.416;5.442;2023-03-14T01:09:17;98942.69;;;10.10;97.98
73516;BME280;61763;51.416;5.442;2023-03-14T01:11:43;98936.94;;;10.15;97.03
73516;BME280;61763;51.416;5.442;2023-03-14T01:14:12;98942.06;;;10.18;96.68
73516;BME280;61763;51.416;5.442;2023-03-14T01:16:38;98937.31;;;10.10;96.91
73516;BME280;61763;51.416;5.442;2023-03-14T01:19:03;98930.69;;;10.14;96.59
73516;BME280;61763;51.416;5.442;2023-03-14T01:21:32;98928.59;;;10.18;96.38
73516;BME280;61763;51.416;5.442;2023-03-14T01:23:59;98927.63;;;10.19;96.47
73516;BME280;61763;51.416;5.442;2023-03-14T01:26:27;98928.47;;;10.20;96.48
73516;BME280;61763;51.416;5.442;2023-03-14T01:28:55;98916.72;;;10.21;96.10
73516;BME280;61763;51.416;5.442;2023-03-14T01:31:21;98914.53;;;10.14;96.75
73516;BME280;61763;51.416;5.442;2023-03-14T01:33:47;98900.56;;;10.21;96.40
73516;BME280;61763;51.416;5.442;2023-03-14T01:36:12;98896.84;;;10.22;96.59
73516;BME280;61763;51.416;5.442;2023-03-14T01:38:39;98897.09;;;10.18;96.94
73516;BME280;61763;51.416;5.442;2023-03-14T01:41:05;98886.06;;;10.22;96.71
73516;BME280;61763;51.416;5.442;2023-03-14T01:43:31;98882.28;;;10.24;96.93
73516;BME280;61763;51.416;5.442;2023-03-14T01:51:19;98871.41;;;10.14;97.92
73516;BME280;61763;51.416;5.442;2023-03-14T01:53:47;98866.72;;;10.05;98.74
73516;BME280;61763;51.416;5.442;2023-03-14T01:56:14;98871.97;;;10.07;99.10
73516;BME280;61763;51.416;5.442;2023-03-14T01:58:45;98879.59;;;10.13;99.07
73516;BME280;61763;51.416;5.442;2023-03-14T02:01:14;98878.72;;;10.12;99.49
73516;BME280;61763;51.416;5.442;2023-03-14T02:03:51;98866.47;;;10.20;99.09
73516;BME280;61763;51.416;5.442;2023-03-14T02:06:19;98868.06;;;10.22;99.53
73516;BME280;61763;51.416;5.442;2023-03-14T02:08:46;98864.50;;;10.22;99.63
73516;BME280;61763;51.416;5.442;2023-03-14T02:11:15;98868.19;;;10.21;100.00
73516;BME280;61763;51.416;5.442;2023-03-14T02:13:41;98871.28;;;10.16;100.00
73516;BME280;61763;51.416;5.442;2023-03-14T02:16:07;98874.56;;;10.20;100.00
73516;BME280;61763;51.416;5.442;2023-03-14T02:18:32;98862.06;;;10.18;100.00
73516;BME280;61763;51.416;5.442;2023-03-14T02:21:08;98861.72;;;10.12;100.00
73516;BME280;61763;51.416;5.442;2023-03-14T02:24:00;98865.75;;;10.06;100.00
73516;BME280;61763;51.416;5.442;2023-03-14T02:29:33;98864.66;;;9.97;100.00
73516;BME280;61763;51.416;5.442;2023-03-14T02:32:00;98860.22;;;9.96;100.00
73516;BME280;61763;51.416;5.442;2023-03-14T02:34:26;98862.53;;;10.01;100.00
73516;BME280;61763;51.416;5.442;2023-03-14T02:36:53;98858.66;;;9.94;100.00
73516;BME280;61763;51.416;5.442;2023-03-14T02:39:40;98853.25;;;9.94;100.00
73516;BME280;61763;51.416;5.442;2023-03-14T02:42:07;98857.44;;;9.87;100.00
73516;BME280;61763;51.416;5.442;2023-03-14T02:44:32;98845.53;;;9.78;100.00
73516;BME280;61763;51.416;5.442;2023-03-14T02:46:57;98834.88;;;9.76;100.00
73516;BME280;61763;51.416;5.442;2023-03-14T02:49:25;98837.81;;;9.73;100.00
73516;BME280;61763;51.416;5.442;2023-03-14T02:51:51;98833.78;;;9.68;100.00
73516;BME280;61763;51.416;5.442;2023-03-14T02:54:16;98840.84;;;9.69;100.00
73516;BME280;61763;51.416;5.442;2023-03-14T02:56:44;98839.50;;;9.74;100.00
73516;BME280;61763;51.416;5.442;2023-03-14T02:59:09;98846.91;;;9.84;100.00
73516;BME280;61763;51.416;5.442;2023-03-14T03:01:35;98840.63;;;9.83;100.00
73516;BME280;61763;51.416;5.442;2023-03-14T03:04:00;98841.63;;;9.82;100.00
73516;BME280;61763;51.416;5.442;2023-03-14T03:06:26;98849.91;;;9.79;100.00
73516;BME280;61763;51.416;5.442;2023-03-14T03:08:52;98859.97;;;9.77;100.00
73516;BME280;61763;51.416;5.442;2023-03-14T03:11:17;98854.47;;;9.78;100.00
73516;BME280;61763;51.416;5.442;2023-03-14T03:13:43;98856.41;;;9.88;100.00
73516;BME280;61763;51.416;5.442;2023-03-14T03:16:09;98853.75;;;9.76;100.00
73516;BME280;61763;51.416;5.442;2023-03-14T03:18:34;98845.41;;;9.79;100.00
73516;BME280;61763;51.416;5.442;2023-03-14T03:21:04;98849.56;;;9.72;100.00
73516;BME280;61763;51.416;5.442;2023-03-14T03:23:30;98840.75;;;9.81;100.00
73516;BME280;61763;51.416;5.442;2023-03-14T03:25:55;98839.50;;;9.74;100.00
73516;BME280;61763;51.416;5.442;2023-03-14T03:28:22;98857.28;;;9.77;100.00
73516;BME280;61763;51.416;5.442;2023-03-14T03:30:47;98837.69;;;9.75;100.00
73516;BME280;61763;51.416;5.442;2023-03-14T03:33:13;98844.41;;;9.69;100.00
73516;BME280;61763;51.416;5.442;2023-03-14T03:35:49;98847.13;;;9.69;100.00
73516;BME280;61763;51.416;5.442;2023-03-14T03:38:15;98840.00;;;9.68;100.00
73516;BME280;61763;51.416;5.442;2023-03-14T03:40:42;98839.78;;;9.60;100.00
73516;BME280;61763;51.416;5.442;2023-03-14T03:43:08;98842.22;;;9.63;100.00
73516;BME280;61763;51.416;5.442;2023-03-14T03:45:34;98838.16;;;9.57;100.00
73516;BME280;61763;51.416;5.442;2023-03-14T03:47:59;98830.09;;;9.57;100.00
73516;BME280;61763;51.416;5.442;2023-03-14T03:50:25;98825.41;;;9.48;100.00
73516;BME280;61763;51.416;5.442;2023-03-14T03:52:50;98837.00;;;9.37;100.00
73516;BME280;61763;51.416;5.442;2023-03-14T03:55:16;98831.47;;;9.27;100.00
73516;BME280;61763;51.416;5.442;2023-03-14T03:57:41;98825.97;;;9.18;100.00
73516;BME280;61763;51.416;5.442;2023-03-14T04:00:07;98835.00;;;9.17;100.00
73516;BME280;61763;51.416;5.442;2023-03-14T04:02:37;98830.59;;;9.16;100.00
73516;BME280;61763;51.416;5.442;2023-03-14T04:05:02;98838.34;;;9.20;100.00
73516;BME280;61763;51.416;5.442;2023-03-14T04:07:28;98819.72;;;9.17;100.00
73516;BME280;61763;51.416;5.442;2023-03-14T04:09:56;98829.25;;;9.21;100.00
73516;BME280;61763;51.416;5.442;2023-03-14T04:12:21;98820.69;;;9.16;100.00
73516;BME280;61763;51.416;5.442;2023-03-14T04:14:46;98821.31;;;9.20;100.00
73516;BME280;61763;51.416;5.442;2023-03-14T04:17:12;98819.81;;;9.16;100.00
73516;BME280;61763;51.416;5.442;2023-03-14T04:19:37;98825.44;;;9.12;100.00
73516;BME280;61763;51.416;5.442;2023-03-14T04:22:03;98823.00;;;9.09;100.00
73516;BME280;61763;51.416;5.442;2023-03-14T04:24:28;98826.03;;;9.05;100.00
73516;BME280;61763;51.416;5.442;2023-03-14T04:26:53;98820.16;;;9.00;100.00
73516;BME280;61763;51.416;5.442;2023-03-14T04:29:19;98818.44;;;8.99;100.00
73516;BME280;61763;51.416;5.442;2023-03-14T04:31:44;98806.13;;;8.83;100.00
73516;BME280;61763;51.416;5.442;2023-03-14T04:34:09;98817.53;;;8.87;100.00
73516;BME280;61763;51.416;5.442;2023-03-14T04:36:35;98813.25;;;8.84;100.00
73516;BME280;61763;51.416;5.442;2023-03-14T04:39:00;98813.59;;;8.80;100.00
73516;BME280;61763;51.416;5.442;2023-03-14T04:41:25;98812.22;;;8.74;100.00
73516;BME280;61763;51.416;5.442;2023-03-14T04:43:51;98809.28;;;8.77;100.00
73516;BME280;61763;51.416;5.442;2023-03-14T04:46:16;98797.94;;;8.73;100.00
73516;BME280;61763;51.416;5.442;2023-03-14T04:48:42;98808.91;;;8.70;100.00
73516;BME280;61763;51.416;5.442;2023-03-14T04:51:07;98807.19;;;8.69;100.00
73516;BME280;61763;51.416;5.442;2023-03-14T04:53:33;98823.03;;;8.61;100.00
73516;BME280;61763;51.416;5.442;2023-03-14T04:55:59;98816.31;;;8.55;100.00
73516;BME280;61763;51.416;5.442;2023-03-14T04:58:25;98818.75;;;8.58;100.00
73516;BME280;61763;51.416;5.442;2023-03-14T05:00:51;98811.66;;;8.57;100.00
73516;BME280;61763;51.416;5.442;2023-03-14T05:03:17;98807.13;;;8.58;100.00
73516;BME280;61763;51.416;5.442;2023-03-14T05:05:43;98812.28;;;8.61;100.00
73516;BME280;61763;51.416;5.442;2023-03-14T05:08:10;98810.59;;;8.60;100.00
73516;BME280;61763;51.416;5.442;2023-03-14T05:10:36;98811.31;;;8.62;100.00
73516;BME280;61763;51.416;5.442;2023-03-14T05:13:02;98809.59;;;8.61;100.00
73516;BME280;61763;51.416;5.442;2023-03-14T05:15:27;98807.44;;;8.66;100.00
73516;BME280;61763;51.416;5.442;2023-03-14T05:17:53;98802.44;;;8.73;100.00
73516;BME280;61763;51.416;5.442;2023-03-14T05:20:20;98808.81;;;8.72;100.00
73516;BME280;61763;51.416;5.442;2023-03-14T05:22:45;98800.84;;;8.70;100.00
73516;BME280;61763;51.416;5.442;2023-03-14T05:25:11;98807.59;;;8.76;100.00
73516;BME280;61763;51.416;5.442;2023-03-14T05:27:36;98794.03;;;8.77;100.00
73516;BME280;61763;51.416;5.442;2023-03-14T05:30:03;98794.75;;;8.80;100.00
73516;BME280;61763;51.416;5.442;2023-03-14T05:32:29;98802.22;;;8.76;100.00
73516;BME280;61763;51.416;5.442;2023-03-14T05:34:54;98796.38;;;8.82;100.00
73516;BME280;61763;51.416;5.442;2023-03-14T05:37:23;98796.13;;;8.85;100.00
73516;BME280;61763;51.416;5.442;2023-03-14T05:39:48;98795.16;;;8.86;100.00
73516;BME280;61763;51.416;5.442;2023-03-14T05:42:15;98783.16;;;8.79;100.00
73516;BME280;61763;51.416;5.442;2023-03-14T05:44:40;98779.59;;;8.79;100.00
73516;BME280;61763;51.416;5.442;2023-03-14T05:47:06;98780.72;;;8.76;100.00
73516;BME280;61763;51.416;5.442;2023-03-14T05:49:31;98779.56;;;8.67;100.00
73516;BME280;61763;51.416;5.442;2023-03-14T05:51:56;98782.50;;;8.75;100.00
73516;BME280;61763;51.416;5.442;2023-03-14T05:54:22;98795.25;;;8.73;100.00
73516;BME280;61763;51.416;5.442;2023-03-14T05:56:49;98782.13;;;8.69;100.00
73516;BME280;61763;51.416;5.442;2023-03-14T05:59:14;98786.28;;;8.73;100.00
73516;BME280;61763;51.416;5.442;2023-03-14T06:01:40;98778.47;;;8.70;100.00
73516;BME280;61763;51.416;5.442;2023-03-14T06:04:05;98781.50;;;8.65;100.00
73516;BME280;61763;51.416;5.442;2023-03-14T06:06:32;98785.91;;;8.66;100.00
73516;BME280;61763;51.416;5.442;2023-03-14T06:08:57;98776.75;;;8.69;100.00
73516;BME280;61763;51.416;5.442;2023-03-14T06:11:22;98777.72;;;8.68;100.00
73516;BME280;61763;51.416;5.442;2023-03-14T06:13:48;98774.81;;;8.71;100.00
73516;BME280;61763;51.416;5.442;2023-03-14T06:16:13;98778.22;;;8.73;100.00
73516;BME280;61763;51.416;5.442;2023-03-14T06:18:39;98774.56;;;8.74;100.00
73516;BME280;61763;51.416;5.442;2023-03-14T06:21:05;98778.88;;;8.76;100.00
73516;BME280;61763;51.416;5.442;2023-03-14T06:23:30;98781.81;;;8.85;100.00
73516;BME280;61763;51.416;5.442;2023-03-14T06:25:57;98782.22;;;8.91;100.00
73516;BME280;61763;51.416;5.442;2023-03-14T06:28:22;98783.59;;;8.97;100.00
73516;BME280;61763;51.416;5.442;2023-03-14T06:30:48;98790.16;;;8.93;100.00
73516;BME280;61763;51.416;5.442;2023-03-14T06:33:13;98782.81;;;8.95;100.00
73516;BME280;61763;51.416;5.442;2023-03-14T06:35:38;98780.28;;;9.05;100.00
73516;BME280;61763;51.416;5.442;2023-03-14T06:38:04;98776.41;;;9.09;100.00
73516;BME280;61763;51.416;5.442;2023-03-14T06:40:29;98781.94;;;9.19;100.00
73516;BME280;61763;51.416;5.442;2023-03-14T06:42:55;98790.63;;;9.22;100.00
73516;BME280;61763;51.416;5.442;2023-03-14T06:45:20;98779.88;;;9.34;100.00
73516;BME280;61763;51.416;5.442;2023-03-14T06:47:46;98783.81;;;9.41;100.00
73516;BME280;61763;51.416;5.442;2023-03-14T06:50:11;98797.38;;;9.51;100.00
73516;BME280;61763;51.416;5.442;2023-03-14T06:52:37;98791.91;;;9.63;100.00
73516;BME280;61763;51.416;5.442;2023-03-14T06:55:03;98795.56;;;9.74;100.00
73516;BME280;61763;51.416;5.442;2023-03-14T06:57:28;98791.03;;;9.86;100.00
73516;BME280;61763;51.416;5.442;2023-03-14T06:59:55;98799.00;;;9.87;100.00
73516;BME280;61763;51.416;5.442;2023-03-14T07:02:21;98793.47;;;9.89;100.00
73516;BME280;61763;51.416;5.442;2023-03-14T07:04:48;98800.22;;;9.72;100.00
73516;BME280;61763;51.416;5.442;2023-03-14T07:07:15;98809.88;;;9.74;100.00
73516;BME280;61763;51.416;5.442;2023-03-14T07:09:41;98817.00;;;9.75;100.00
73516;BME280;61763;51.416;5.442;2023-03-14T07:12:07;98811.63;;;9.87;100.00
73516;BME280;61763;51.416;5.442;2023-03-14T07:14:32;98819.19;;;9.81;100.00
73516;BME280;61763;51.416;5.442;2023-03-14T07:16:57;98821.78;;;9.72;100.00
73516;BME280;61763;51.416;5.442;2023-03-14T07:19:23;98827.28;;;9.70;100.00
73516;BME280;61763;51.416;5.442;2023-03-14T07:21:48;98822.88;;;9.69;100.00
73516;BME280;61763;51.416;5.442;2023-03-14T07:24:14;98825.81;;;9.66;100.00
73516;BME280;61763;51.416;5.442;2023-03-14T07:26:40;98836.31;;;9.58;100.00
73516;BME280;61763;51.416;5.442;2023-03-14T07:29:07;98833.88;;;9.55;100.00
73516;BME280;61763;51.416;5.442;2023-03-14T07:31:32;98838.78;;;9.50;100.00
73516;BME280;61763;51.416;5.442;2023-03-14T07:33:58;98857.72;;;9.37;100.00
73516;BME280;61763;51.416;5.442;2023-03-14T07:36:24;98883.09;;;9.21;100.00
73516;BME280;61763;51.416;5.442;2023-03-14T07:38:49;98918.53;;;9.15;100.00
73516;BME280;61763;51.416;5.442;2023-03-14T07:41:16;98938.59;;;8.87;100.00
73516;BME280;61763;51.416;5.442;2023-03-14T07:43:42;98955.06;;;8.45;100.00
73516;BME280;61763;51.416;5.442;2023-03-14T07:46:08;98971.81;;;8.23;100.00
73516;BME280;61763;51.416;5.442;2023-03-14T07:48:33;98999.63;;;7.83;100.00
73516;BME280;61763;51.416;5.442;2023-03-14T07:50:59;98997.22;;;7.66;100.00
73516;BME280;61763;51.416;5.442;2023-03-14T07:53:25;99008.44;;;7.45;100.00
73516;BME280;61763;51.416;5.442;2023-03-14T07:55:52;99010.22;;;7.32;100.00
73516;BME280;61763;51.416;5.442;2023-03-14T07:58:18;99014.59;;;7.20;100.00
73516;BME280;61763;51.416;5.442;2023-03-14T08:00:44;99019.31;;;7.02;100.00
73516;BME280;61763;51.416;5.442;2023-03-14T08:03:09;99037.53;;;6.97;100.00
73516;BME280;61763;51.416;5.442;2023-03-14T08:05:36;99043.19;;;6.92;100.00
73516;BME280;61763;51.416;5.442;2023-03-14T08:08:01;99051.81;;;6.83;100.00
73516;BME280;61763;51.416;5.442;2023-03-14T08:10:27;99064.25;;;6.84;100.00
73516;BME280;61763;51.416;5.442;2023-03-14T08:12:54;99074.03;;;6.85;100.00
73516;BME280;61763;51.416;5.442;2023-03-14T08:15:20;99076.72;;;6.85;100.00
73516;BME280;61763;51.416;5.442;2023-03-14T08:17:46;99085.31;;;6.90;100.00
73516;BME280;61763;51.416;5.442;2023-03-14T08:20:22;99101.59;;;7.01;100.00
73516;BME280;61763;51.416;5.442;2023-03-14T08:22:48;99106.31;;;6.98;100.00
73516;BME280;61763;51.416;5.442;2023-03-14T08:25:14;99115.66;;;7.05;100.00
73516;BME280;61763;51.416;5.442;2023-03-14T08:27:39;99121.72;;;7.23;100.00
73516;BME280;61763;51.416;5.442;2023-03-14T08:30:10;99142.28;;;7.37;100.00
73516;BME280;61763;51.416;5.442;2023-03-14T08:32:36;99141.13;;;7.41;100.00
73516;BME280;61763;51.416;5.442;2023-03-14T08:35:03;99140.81;;;7.46;100.00
73516;BME280;61763;51.416;5.442;2023-03-14T08:37:31;99162.91;;;7.36;100.00
73516;BME280;61763;51.416;5.442;2023-03-14T08:39:56;99177.06;;;7.24;100.00
73516;BME280;61763;51.416;5.442;2023-03-14T08:42:22;99185.31;;;7.21;100.00
73516;BME280;61763;51.416;5.442;2023-03-14T08:44:47;99193.94;;;7.12;100.00
73516;BME280;61763;51.416;5.442;2023-03-14T08:47:12;99199.22;;;6.99;100.00
73516;BME280;61763;51.416;5.442;2023-03-14T08:49:38;99205.56;;;6.98;100.00
73516;BME280;61763;51.416;5.442;2023-03-14T08:52:04;99220.84;;;6.96;100.00
73516;BME280;61763;51.416;5.442;2023-03-14T08:54:30;99229.69;;;6.98;100.00
73516;BME280;61763;51.416;5.442;2023-03-14T08:56:56;99229.69;;;7.12;100.00
73516;BME280;61763;51.416;5.442;2023-03-14T08:59:22;99230.03;;;6.92;100.00
73516;BME280;61763;51.416;5.442;2023-03-14T09:01:48;99246.59;;;6.84;100.00
73516;BME280;61763;51.416;5.442;2023-03-14T09:04:13;99252.66;;;6.88;100.00
73516;BME280;61763;51.416;5.442;2023-03-14T09:06:39;99252.56;;;6.89;100.00
73516;BME280;61763;51.416;5.442;2023-03-14T09:09:04;99257.03;;;6.89;100.00
73516;BME280;61763;51.416;5.442;2023-03-14T09:11:30;99284.34;;;6.81;100.00
73516;BME280;61763;51.416;5.442;2023-03-14T09:13:55;99282.69;;;6.78;100.00
73516;BME280;61763;51.416;5.442;2023-03-14T09:16:21;99292.28;;;6.82;100.00
73516;BME280;61763;51.416;5.442;2023-03-14T09:18:46;99298.59;;;6.81;100.00
73516;BME280;61763;51.416;5.442;2023-03-14T09:21:11;99303.25;;;6.94;100.00
73516;BME280;61763;51.416;5.442;2023-03-14T09:23:38;99317.16;;;7.15;100.00
73516;BME280;61763;51.416;5.442;2023-03-14T09:26:04;99327.06;;;7.29;100.00
73516;BME280;61763;51.416;5.442;2023-03-14T09:28:29;99324.78;;;7.37;100.00
73516;BME280;61763;51.416;5.442;2023-03-14T09:30:55;99323.53;;;7.43;100.00
73516;BME280;61763;51.416;5.442;2023-03-14T09:33:21;99335.44;;;7.53;100.00
73516;BME280;61763;51.416;5.442;2023-03-14T09:35:46;99343.69;;;7.64;100.00
73516;BME280;61763;51.416;5.442;2023-03-14T09:38:11;99352.69;;;7.63;100.00
73516;BME280;61763;51.416;5.442;2023-03-14T09:40:40;99360.75;;;7.63;100.00
73516;BME280;61763;51.416;5.442;2023-03-14T09:43:08;99364.19;;;7.51;100.00
73516;BME280;61763;51.416;5.442;2023-03-14T09:45:37;99373.88;;;7.39;100.00
73516;BME280;61763;51.416;5.442;2023-03-14T09:48:08;99397.47;;;7.18;100.00
73516;BME280;61763;51.416;5.442;2023-03-14T09:50:41;99414.22;;;7.07;100.00
73516;BME280;61763;51.416;5.442;2023-03-14T09:53:16;99438.28;;;6.77;100.00
73516;BME280;61763;51.416;5.442;2023-03-14T09:55:45;99493.63;;;6.46;100.00
73516;BME280;61763;51.416;5.442;2023-03-14T09:58:14;99477.25;;;6.19;100.00
73516;BME280;61763;51.416;5.442;2023-03-14T10:00:41;99493.72;;;6.11;100.00
73516;BME280;61763;51.416;5.442;2023-03-14T10:05:34;99533.19;;;5.72;100.00
73516;BME280;61763;51.416;5.442;2023-03-14T10:08:00;99537.25;;;5.44;100.00
73516;BME280;61763;51.416;5.442;2023-03-14T10:10:26;99549.38;;;5.34;100.00
73516;BME280;61763;51.416;5.442;2023-03-14T10:12:59;99565.41;;;5.34;100.00
73516;BME280;61763;51.416;5.442;2023-03-14T10:15:30;99576.38;;;5.47;100.00
73516;BME280;61763;51.416;5.442;2023-03-14T10:17:59;99578.84;;;5.69;100.00
73516;BME280;61763;51.416;5.442;2023-03-14T10:23:22;99600.94;;;5.92;100.00
73516;BME280;61763;51.416;5.442;2023-03-14T10:28:51;99624.72;;;6.84;100.00
73516;BME280;61763;51.416;5.442;2023-03-14T10:31:17;99627.25;;;7.03;100.00
73516;BME280;61763;51.416;5.442;2023-03-14T10:33:57;99640.69;;;7.19;100.00
73516;BME280;61763;51.416;5.442;2023-03-14T10:36:27;99649.50;;;7.05;100.00
73516;BME280;61763;51.416;5.442;2023-03-14T10:41:47;99669.03;;;6.91;100.00
73516;BME280;61763;51.416;5.442;2023-03-14T10:44:14;99689.16;;;6.82;100.00
73516;BME280;61763;51.416;5.442;2023-03-14T10:46:43;99685.97;;;6.76;100.00
73516;BME280;61763;51.416;5.442;2023-03-14T10:49:25;99699.50;;;6.73;100.00
73516;BME280;61763;51.416;5.442;2023-03-14T10:51:52;99712.59;;;6.96;100.00
73516;BME280;61763;51.416;5.442;2023-03-14T10:54:22;99724.03;;;7.16;100.00
73516;BME280;61763;51.416;5.442;2023-03-14T10:57:01;99727.78;;;7.29;100.00
73516;BME280;61763;51.416;5.442;2023-03-14T10:59:35;99730.47;;;7.29;100.00
73516;BME280;61763;51.416;5.442;2023-03-14T11:13:12;99808.50;;;5.63;100.00
73516;BME280;61763;51.416;5.442;2023-03-14T11:24:23;99836.34;;;5.58;100.00
73516;BME280;61763;51.416;5.442;2023-03-14T11:29:41;99848.75;;;5.99;100.00
73516;BME280;61763;51.416;5.442;2023-03-14T11:32:32;99869.47;;;6.14;100.00
73516;BME280;61763;51.416;5.442;2023-03-14T11:35:03;99861.44;;;6.14;100.00
73516;BME280;61763;51.416;5.442;2023-03-14T11:37:36;99864.91;;;6.17;100.00
73516;BME280;61763;51.416;5.442;2023-03-14T11:40:17;99874.69;;;5.99;100.00
73516;BME280;61763;51.416;5.442;2023-03-14T11:42:44;99875.72;;;5.94;100.00
73516;BME280;61763;51.416;5.442;2023-03-14T11:45:30;99888.41;;;5.91;100.00
73516;BME280;61763;51.416;5.442;2023-03-14T11:50:33;99925.94;;;5.70;100.00
73516;BME280;61763;51.416;5.442;2023-03-14T11:53:07;99940.53;;;5.42;100.00
73516;BME280;61763;51.416;5.442;2023-03-14T11:55:36;99959.75;;;4.89;100.00
73516;BME280;61763;51.416;5.442;2023-03-14T11:58:27;99978.88;;;4.32;100.00
73516;BME280;61763;51.416;5.442;2023-03-14T12:00:56;99979.47;;;4.17;100.00
73516;BME280;61763;51.416;5.442;2023-03-14T12:03:35;99969.41;;;4.24;100.00
73516;BME280;61763;51.416;5.442;2023-03-14T12:06:32;99978.41;;;4.45;100.00
73516;BME280;61763;51.416;5.442;2023-03-14T12:09:06;99971.34;;;4.88;100.00
73516;BME280;61763;51.416;5.442;2023-03-14T12:14:30;99982.13;;;5.29;100.00
73516;BME280;61763;51.416;5.442;2023-03-14T12:17:04;100000.03;;;5.49;100.00
73516;BME280;61763;51.416;5.442;2023-03-14T12:19:32;100002.56;;;5.73;100.00
73516;BME280;61763;51.416;5.442;2023-03-14T12:24:31;100011.06;;;6.43;100.00
73516;BME280;61763;51.416;5.442;2023-03-14T12:27:03;100009.25;;;6.62;100.00
73516;BME280;61763;51.416;5.442;2023-03-14T12:29:29;100017.88;;;6.88;100.00
73516;BME280;61763;51.416;5.442;2023-03-14T12:34:31;100029.84;;;6.81;100.00
73516;BME280;61763;51.416;5.442;2023-03-14T12:37:11;100031.59;;;6.63;100.00
73516;BME280;61763;51.416;5.442;2023-03-14T12:42:10;100041.22;;;6.48;97.81
73516;BME280;61763;51.416;5.442;2023-03-14T12:44:47;100030.53;;;6.27;100.00
73516;BME280;61763;51.416;5.442;2023-03-14T12:49:45;100037.47;;;6.31;100.00
73516;BME280;61763;51.416;5.442;2023-03-14T12:52:33;100047.47;;;6.28;100.00
73516;BME280;61763;51.416;5.442;2023-03-14T12:57:59;100050.47;;;6.41;100.00
73516;BME280;61763;51.416;5.442;2023-03-14T13:00:38;100053.66;;;6.68;100.00
73516;BME280;61763;51.416;5.442;2023-03-14T13:03:19;100066.22;;;6.87;99.08
73516;BME280;61763;51.416;5.442;2023-03-14T13:05:58;100069.22;;;6.80;96.94
73516;BME280;61763;51.416;5.442;2023-03-14T13:08:44;100071.97;;;6.79;98.47
73516;BME280;61763;51.416;5.442;2023-03-14T13:11:16;100085.84;;;6.68;99.47
73516;BME280;61763;51.416;5.442;2023-03-14T13:13:49;100080.06;;;6.77;95.98
73516;BME280;61763;51.416;5.442;2023-03-14T13:16:20;100084.84;;;6.90;92.71
73516;BME280;61763;51.416;5.442;2023-03-14T13:18:47;100077.19;;;7.01;95.36
73516;BME280;61763;51.416;5.442;2023-03-14T13:21:16;100068.50;;;7.32;95.39
73516;BME280;61763;51.416;5.442;2023-03-14T13:23:58;100090.75;;;7.34;76.70
73516;BME280;61763;51.416;5.442;2023-03-14T13:26:32;100105.22;;;7.32;72.58
73516;BME280;61763;51.416;5.442;2023-03-14T13:29:18;100103.38;;;7.32;69.76
73516;BME280;61763;51.416;5.442;2023-03-14T13:31:46;100103.59;;;7.47;71.66
73516;BME280;61763;51.416;5.442;2023-03-14T13:34:12;100104.72;;;7.60;73.12
73516;BME280;61763;51.416;5.442;2023-03-14T13:36:38;100112.53;;;7.65;69.13
73516;BME280;61763;51.416;5.442;2023-03-14T13:39:10;100107.50;;;7.76;72.41
73516;BME280;61763;51.416;5.442;2023-03-14T13:41:38;100117.06;;;7.82;65.69
73516;BME280;61763;51.416;5.442;2023-03-14T13:44:07;100127.66;;;7.85;63.29
73516;BME280;61763;51.416;5.442;2023-03-14T13:46:34;100132.69;;;7.74;61.30
73516;BME280;61763;51.416;5.442;2023-03-14T13:49:09;100148.66;;;7.77;58.45
73516;BME280;61763;51.416;5.442;2023-03-14T13:51:38;100150.84;;;7.68;58.55
73516;BME280;61763;51.416;5.442;2023-03-14T13:54:11;100158.13;;;7.47;53.75
73516;BME280;61763;51.416;5.442;2023-03-14T13:56:39;100163.22;;;7.34;56.14
73516;BME280;61763;51.416;5.442;2023-03-14T13:59:04;100176.72;;;7.33;54.33
73516;BME280;61763;51.416;5.442;2023-03-14T14:01:30;100180.47;;;7.48;53.94
73516;BME280;61763;51.416;5.442;2023-03-14T14:03:58;100189.97;;;7.55;53.30